Погода Пирожокна 2 недели

Ростовская область, Россия

21 мая-02 июня
  • 21мая
    Сегодня
    +11°
    +27°
    Облачно с прояснениями
    ВремяПогодаТемператураВлажностьДавлениеВетер, м/сВероятность осадков
    00:00Ясно и безоблачно+14°C66 %762 мм0.7 м/с2 %
    03:00Ясно и безоблачно+11°C79 %762 мм2.0 м/с2 %
    06:00Ясно и безоблачно+13°C72 %763 мм1.6 м/с2 %
    09:00Ясно и безоблачно+22°C41 %764 мм1.0 м/с2 %
    12:00Облачно с прояснениями+26°C25 %763 мм1.6 м/с2 %
    15:00Облачно с прояснениями+27°C24 %762 мм3.1 м/с2 %
    18:00Ясно и безоблачно+26°C24 %762 мм2.8 м/с2 %
    21:00Ясно и безоблачно+17°C45 %762 мм2.3 м/с2 %
  • 22мая
    Среда
    +11°
    +28°
    Ясно и безоблачно
    ВремяПогодаТемператураВлажностьДавлениеВетер, м/сВероятность осадков
    00:00Ясно и безоблачно+14°C56 %762 мм2.0 м/с2 %
    03:00Ясно и безоблачно+12°C60 %762 мм2.4 м/с2 %
    06:00Ясно и безоблачно+14°C58 %762 мм2.2 м/с2 %
    09:00Ясно и безоблачно+23°C35 %763 мм1.6 м/с2 %
    12:00Ясно и безоблачно+27°C21 %762 мм3.8 м/с2 %
    15:00Ясно и безоблачно+28°C22 %761 мм3.7 м/с2 %
    18:00Ясно и безоблачно+26°C24 %760 мм3.2 м/с2 %
    21:00Ясно и безоблачно+19°C39 %760 мм2.4 м/с2 %
  • 23мая
    Четверг
    +15°
    +28°
    Ясно и безоблачно
    ВремяПогодаТемператураВлажностьДавлениеВетер, м/сВероятность осадков
    00:00Ясно и безоблачно+14°C54 %760 мм2.5 м/с2 %
    03:00Ясно и безоблачно+12°C57 %760 мм2.4 м/с2 %
    06:00Ясно и безоблачно+15°C56 %761 мм2.0 м/с2 %
    09:00Ясно и безоблачно+23°C36 %761 мм2.4 м/с2 %
    12:00Ясно и безоблачно+27°C23 %760 мм5.1 м/с2 %
    15:00Ясно и безоблачно+28°C23 %760 мм4.6 м/с6 %
    18:00Ясно и безоблачно+25°C40 %760 мм6.6 м/с4 %
    21:00Ясно и безоблачно+19°C52 %761 мм5.7 м/с2 %
  • 24мая
    Пятница
    +12°
    +25°
    Ясно и безоблачно
    ВремяПогодаТемператураВлажностьДавлениеВетер, м/сВероятность осадков
    00:00Ясно и безоблачно+18°C62 %762 мм6.2 м/с2 %
    03:00Ясно и безоблачно+16°C63 %763 мм7.0 м/с2 %
    06:00Ясно и безоблачно+15°C47 %764 мм6.9 м/с2 %
    09:00Ясно и безоблачно+19°C37 %766 мм8.0 м/с2 %
    12:00Ясно и безоблачно+23°C32 %766 мм8.7 м/с2 %
    15:00Ясно и безоблачно+23°C21 %766 мм8.6 м/с2 %
    18:00Ясно и безоблачно+22°C21 %766 мм8.4 м/с5 %
    21:00Ясно и безоблачно+17°C27 %767 мм7.2 м/с2 %
Мы используем cookies
Соглашаюсь